Reklama

Seznam meteostanic a jejich METAR

Vyhledat místa podle abecedy:
A B C D E F G H I J K L M N O P Q R S T U V W X Y Z

Filtrovat:

ID stanice:
a/nebo
Název místa (fulltext):
 
Místo (ID)Naposledy načteno 
Ústí nad Labem - Kočkov (Usti n/L) 04.06.2020 08:00 UTC Zobrazit data
Místo: Ústí nad Labem - Kočkov
Teplota: 15 °C (pocitová: 14.1 °C)
Vítr: 1 m/s z(e) 230°
Počasí: skoro zataženo
Dohlednost: 45 km
Zákl. oblačnosti: 1/8 660 m;5/8 2700 m
Vlhkost: 72%
Ústí nad Orlicí (Usti n/O) 04.06.2020 08:00 UTC Zobrazit data
Místo: Ústí nad Orlicí
Teplota: 18 °C (pocitová: 16.3 °C)
Vítr: 4 m/s z(e) 110°
Počasí: skoro zataženo
Dohlednost: 70 km
Zákl. oblačnosti: 1/8 900 m;3/8 6000 m
Vlhkost: 60%
Ulaanbaatar (ZMUB) 20.02.2019 12:00 UTC Zobrazit METAR
ZMUB 201200Z CAVOK M14/M25 Q1021 NOSIG RMK QFE657.8 33
Uvea Island (NLWW) 04.06.2020 08:00 UTC Zobrazit METAR
NLWW 040800Z AUTO 10011KT 9999 BKN025/// BKN046/// 29/25 Q1011 TEMPO 2000 TSRA BKN010 SCT016CB BKN020
Uzhhorod (UKLU) Zatím nenačteno  
Reklama

Lunární kalendář

  • zítraFáze měsíce uplnek
  • 13.06.Fáze měsíce posl_ctvrt
  • 21.06.Fáze měsíce nov
  • 28.06.Fáze měsíce prv_ctvrt



Reklama
Meteodomečky

Počasí na Váš email

Emaily jsou bez reklamy a bez spamu



Odhlásit newsletter

Reklama


Další české internetové stránky (nejen) o počasí najdete v katalogu TOPlist - weby o počasí nebo vyhledejte na internetu, co jste tu na 🌞 Slunečnu ⛅ zatím nenašli:

Reklama